This is the latest recevied weather packets stored in our database for station/object EA1DB-1. If no packets are shown the sender has not sent any weather packets the latest 10 day(s).
| Time | Temp. | Humidity | Pressure | Rain* | Wind** | Luminosity | Snow |
|---|---|---|---|---|---|---|---|
| 1777947684 | 11.67° C | 88% | 1012.6 hPa | 0 mm | - | - | - |
| 1777944084 | 11.67° C | 86% | 1012.9 hPa | 0 mm | - | - | - |
| 1777942884 | 11.67° C | 85% | 1013 hPa | 0 mm | - | - | - |
| 1777939908 | 11.67° C | 81% | 1013.2 hPa | 0 mm | - | - | - |
| 1777933908 | 12.78° C | 72% | 1013.3 hPa | 0 mm | - | - | - |
| 1777926708 | 13.89° C | 67% | 1013.3 hPa | 0 mm | - | - | - |
| 1777921908 | 14.44° C | 64% | 1012.6 hPa | 0 mm | - | - | - |
| 1777918328 | 15° C | 64% | 1012.3 hPa | 0 mm | - | - | - |
| 1777916484 | 15.56° C | 62% | 1012.3 hPa | 0 mm | - | - | - |
| 1777915908 | 15.56° C | 61% | 1012.4 hPa | 0 mm | - | - | - |
| 1777914708 | 15.56° C | 58% | 1012.3 hPa | 0 mm | - | - | - |
| 1777914084 | 16.11° C | 59% | 1012.4 hPa | 0 mm | - | - | - |
| 1777906884 | 16.67° C | 53% | 1012.6 hPa | 0 mm | - | - | - |
| 1777906328 | 16.67° C | 52% | 1012.5 hPa | 0 mm | - | - | - |
| 1777905684 | 17.22° C | 53% | 1012.5 hPa | 0 mm | - | - | - |
| 1777903284 | 16.67° C | 54% | 1012.8 hPa | 0 mm | - | - | - |
| 1777902708 | 16.67° C | 55% | 1012.7 hPa | 0 mm | - | - | - |
| 1777899108 | 16.67° C | 52% | 1012.6 hPa | 0 mm | - | - | - |
| 1777895508 | 16.67° C | 62% | 1012.5 hPa | 0 mm | - | - | - |
| 1777894884 | 16.67° C | 63% | 1012.6 hPa | 0 mm | - | - | - |
| 1777893148 | 16.67° C | 60% | 1012.5 hPa | 0 mm | - | - | - |
| 1777892484 | 16.67° C | 62% | 1012.7 hPa | 0 mm | - | - | - |
| 1777891908 | 16.11° C | 63% | 1012.7 hPa | 0 mm | - | - | - |
| 1777888884 | 15° C | 71% | 1012.4 hPa | 0 mm | - | - | - |
| 1777888308 | 14.44° C | 72% | 1012.4 hPa | 0 mm | - | - | - |
* Rain latest hour (hover to see other rain measurements)
** Current wind speed in m/s (hover to see current wind gust speed)